sensor_id;sensor_type;location;lat;lon;timestamp;P1;durP1;ratioP1;P2;durP2;ratioP2
34643;SDS011;26931;43.498;-1.506;2023-04-24T00:00:04;15.57;;;4.22;;
34643;SDS011;26931;43.498;-1.506;2023-04-24T00:02:31;18.58;;;4.68;;
34643;SDS011;26931;43.498;-1.506;2023-04-24T00:04:57;21.40;;;5.47;;
34643;SDS011;26931;43.498;-1.506;2023-04-24T00:07:27;27.45;;;4.65;;
34643;SDS011;26931;43.498;-1.506;2023-04-24T00:09:54;20.40;;;5.43;;
34643;SDS011;26931;43.498;-1.506;2023-04-24T00:12:20;18.48;;;4.55;;
34643;SDS011;26931;43.498;-1.506;2023-04-24T00:14:45;17.85;;;4.85;;
34643;SDS011;26931;43.498;-1.506;2023-04-24T00:17:11;22.55;;;5.13;;
34643;SDS011;26931;43.498;-1.506;2023-04-24T00:19:37;18.05;;;4.47;;
34643;SDS011;26931;43.498;-1.506;2023-04-24T00:22:03;18.35;;;4.65;;
34643;SDS011;26931;43.498;-1.506;2023-04-24T00:24:29;22.83;;;5.57;;
34643;SDS011;26931;43.498;-1.506;2023-04-24T00:26:55;18.65;;;4.47;;
34643;SDS011;26931;43.498;-1.506;2023-04-24T00:29:21;23.45;;;6.13;;
34643;SDS011;26931;43.498;-1.506;2023-04-24T00:31:46;19.30;;;5.70;;
34643;SDS011;26931;43.498;-1.506;2023-04-24T00:34:12;19.95;;;5.25;;
34643;SDS011;26931;43.498;-1.506;2023-04-24T00:36:39;22.02;;;5.20;;
34643;SDS011;26931;43.498;-1.506;2023-04-24T00:39:05;19.05;;;4.68;;
34643;SDS011;26931;43.498;-1.506;2023-04-24T00:41:33;17.77;;;4.45;;
34643;SDS011;26931;43.498;-1.506;2023-04-24T00:44:00;18.52;;;4.80;;
34643;SDS011;26931;43.498;-1.506;2023-04-24T00:46:25;16.77;;;4.70;;
34643;SDS011;26931;43.498;-1.506;2023-04-24T00:48:51;18.40;;;4.68;;
34643;SDS011;26931;43.498;-1.506;2023-04-24T00:51:17;17.20;;;4.68;;
34643;SDS011;26931;43.498;-1.506;2023-04-24T00:53:43;15.80;;;4.88;;
34643;SDS011;26931;43.498;-1.506;2023-04-24T00:56:09;22.95;;;5.20;;
34643;SDS011;26931;43.498;-1.506;2023-04-24T00:58:35;22.13;;;5.15;;
34643;SDS011;26931;43.498;-1.506;2023-04-24T01:01:01;18.70;;;4.85;;
34643;SDS011;26931;43.498;-1.506;2023-04-24T01:03:28;17.88;;;4.50;;
34643;SDS011;26931;43.498;-1.506;2023-04-24T01:05:56;17.75;;;4.43;;
34643;SDS011;26931;43.498;-1.506;2023-04-24T01:08:23;20.77;;;4.75;;
34643;SDS011;26931;43.498;-1.506;2023-04-24T01:10:53;19.95;;;5.35;;
34643;SDS011;26931;43.498;-1.506;2023-04-24T01:13:20;25.75;;;5.47;;
34643;SDS011;26931;43.498;-1.506;2023-04-24T01:15:46;13.60;;;4.00;;
34643;SDS011;26931;43.498;-1.506;2023-04-24T01:18:12;19.00;;;4.65;;
34643;SDS011;26931;43.498;-1.506;2023-04-24T01:20:39;22.27;;;5.15;;
34643;SDS011;26931;43.498;-1.506;2023-04-24T01:23:07;19.55;;;5.32;;
34643;SDS011;26931;43.498;-1.506;2023-04-24T01:25:33;14.98;;;4.85;;
34643;SDS011;26931;43.498;-1.506;2023-04-24T01:28:00;17.00;;;4.70;;
34643;SDS011;26931;43.498;-1.506;2023-04-24T01:30:26;14.10;;;4.68;;
34643;SDS011;26931;43.498;-1.506;2023-04-24T01:32:53;19.40;;;4.63;;
34643;SDS011;26931;43.498;-1.506;2023-04-24T01:35:19;14.43;;;4.45;;
34643;SDS011;26931;43.498;-1.506;2023-04-24T01:37:45;18.85;;;4.55;;
34643;SDS011;26931;43.498;-1.506;2023-04-24T01:40:11;10.98;;;3.92;;
34643;SDS011;26931;43.498;-1.506;2023-04-24T01:42:37;16.42;;;4.47;;
34643;SDS011;26931;43.498;-1.506;2023-04-24T01:45:03;23.73;;;4.43;;
34643;SDS011;26931;43.498;-1.506;2023-04-24T01:47:31;19.65;;;5.00;;
34643;SDS011;26931;43.498;-1.506;2023-04-24T01:49:57;17.48;;;4.85;;
34643;SDS011;26931;43.498;-1.506;2023-04-24T01:52:23;19.42;;;4.22;;
34643;SDS011;26931;43.498;-1.506;2023-04-24T01:54:49;18.90;;;4.00;;
34643;SDS011;26931;43.498;-1.506;2023-04-24T01:57:16;16.70;;;4.32;;
34643;SDS011;26931;43.498;-1.506;2023-04-24T01:59:42;12.85;;;4.10;;
34643;SDS011;26931;43.498;-1.506;2023-04-24T02:02:08;17.10;;;4.45;;
34643;SDS011;26931;43.498;-1.506;2023-04-24T02:04:33;19.00;;;4.50;;
34643;SDS011;26931;43.498;-1.506;2023-04-24T02:06:59;13.65;;;3.80;;
34643;SDS011;26931;43.498;-1.506;2023-04-24T02:09:25;17.73;;;4.63;;
34643;SDS011;26931;43.498;-1.506;2023-04-24T02:11:51;10.80;;;3.60;;
34643;SDS011;26931;43.498;-1.506;2023-04-24T02:14:16;13.65;;;4.50;;
34643;SDS011;26931;43.498;-1.506;2023-04-24T02:16:42;15.27;;;4.38;;
34643;SDS011;26931;43.498;-1.506;2023-04-24T02:19:09;14.90;;;4.10;;
34643;SDS011;26931;43.498;-1.506;2023-04-24T02:21:35;13.10;;;3.80;;
34643;SDS011;26931;43.498;-1.506;2023-04-24T02:24:01;17.70;;;4.75;;
34643;SDS011;26931;43.498;-1.506;2023-04-24T02:26:27;19.33;;;4.47;;
34643;SDS011;26931;43.498;-1.506;2023-04-24T02:28:52;15.40;;;4.72;;
34643;SDS011;26931;43.498;-1.506;2023-04-24T02:31:18;13.43;;;4.03;;
34643;SDS011;26931;43.498;-1.506;2023-04-24T02:33:44;18.17;;;4.47;;
34643;SDS011;26931;43.498;-1.506;2023-04-24T02:36:10;13.43;;;3.90;;
34643;SDS011;26931;43.498;-1.506;2023-04-24T02:38:35;15.23;;;4.40;;
34643;SDS011;26931;43.498;-1.506;2023-04-24T02:41:01;14.88;;;3.45;;
34643;SDS011;26931;43.498;-1.506;2023-04-24T02:43:31;12.95;;;4.20;;
34643;SDS011;26931;43.498;-1.506;2023-04-24T02:45:57;13.70;;;3.42;;
34643;SDS011;26931;43.498;-1.506;2023-04-24T02:48:23;12.10;;;3.50;;
34643;SDS011;26931;43.498;-1.506;2023-04-24T02:50:49;16.00;;;3.83;;
34643;SDS011;26931;43.498;-1.506;2023-04-24T02:53:15;18.63;;;4.53;;
34643;SDS011;26931;43.498;-1.506;2023-04-24T02:55:41;10.52;;;4.28;;
34643;SDS011;26931;43.498;-1.506;2023-04-24T02:58:07;10.45;;;3.70;;
34643;SDS011;26931;43.498;-1.506;2023-04-24T03:00:33;17.75;;;3.97;;
34643;SDS011;26931;43.498;-1.506;2023-04-24T03:02:59;13.43;;;4.15;;
34643;SDS011;26931;43.498;-1.506;2023-04-24T03:05:25;11.70;;;4.00;;
34643;SDS011;26931;43.498;-1.506;2023-04-24T03:07:52;18.20;;;4.63;;
34643;SDS011;26931;43.498;-1.506;2023-04-24T03:10:18;17.05;;;4.13;;
34643;SDS011;26931;43.498;-1.506;2023-04-24T03:12:43;11.45;;;3.75;;
34643;SDS011;26931;43.498;-1.506;2023-04-24T03:15:09;19.23;;;4.45;;
34643;SDS011;26931;43.498;-1.506;2023-04-24T03:17:35;14.00;;;4.10;;
34643;SDS011;26931;43.498;-1.506;2023-04-24T03:20:02;13.05;;;4.63;;
34643;SDS011;26931;43.498;-1.506;2023-04-24T03:22:30;13.18;;;4.68;;
34643;SDS011;26931;43.498;-1.506;2023-04-24T03:24:57;14.95;;;4.10;;
34643;SDS011;26931;43.498;-1.506;2023-04-24T03:27:23;18.27;;;4.28;;
34643;SDS011;26931;43.498;-1.506;2023-04-24T03:29:49;16.20;;;4.13;;
34643;SDS011;26931;43.498;-1.506;2023-04-24T03:32:19;20.58;;;4.50;;
34643;SDS011;26931;43.498;-1.506;2023-04-24T03:34:45;21.45;;;4.68;;
34643;SDS011;26931;43.498;-1.506;2023-04-24T03:37:10;19.50;;;4.80;;
34643;SDS011;26931;43.498;-1.506;2023-04-24T03:39:36;22.58;;;5.65;;
34643;SDS011;26931;43.498;-1.506;2023-04-24T03:42:02;18.88;;;5.57;;
34643;SDS011;26931;43.498;-1.506;2023-04-24T03:44:28;10.70;;;4.70;;
34643;SDS011;26931;43.498;-1.506;2023-04-24T03:46:53;20.85;;;5.18;;
34643;SDS011;26931;43.498;-1.506;2023-04-24T03:49:19;19.38;;;4.68;;
34643;SDS011;26931;43.498;-1.506;2023-04-24T03:51:45;18.92;;;4.20;;
34643;SDS011;26931;43.498;-1.506;2023-04-24T03:54:11;13.15;;;3.90;;
34643;SDS011;26931;43.498;-1.506;2023-04-24T03:56:37;13.20;;;3.80;;
34643;SDS011;26931;43.498;-1.506;2023-04-24T03:59:02;23.83;;;5.28;;
34643;SDS011;26931;43.498;-1.506;2023-04-24T04:01:28;20.63;;;5.15;;
34643;SDS011;26931;43.498;-1.506;2023-04-24T04:03:54;13.43;;;4.30;;
34643;SDS011;26931;43.498;-1.506;2023-04-24T04:06:19;13.68;;;4.35;;
34643;SDS011;26931;43.498;-1.506;2023-04-24T04:08:46;17.08;;;4.78;;
34643;SDS011;26931;43.498;-1.506;2023-04-24T04:11:12;20.70;;;4.53;;
34643;SDS011;26931;43.498;-1.506;2023-04-24T04:13:38;17.15;;;4.50;;
34643;SDS011;26931;43.498;-1.506;2023-04-24T04:16:03;15.25;;;4.45;;
34643;SDS011;26931;43.498;-1.506;2023-04-24T04:18:29;14.50;;;3.95;;
34643;SDS011;26931;43.498;-1.506;2023-04-24T04:20:55;17.73;;;4.88;;
34643;SDS011;26931;43.498;-1.506;2023-04-24T04:23:22;22.13;;;4.95;;
34643;SDS011;26931;43.498;-1.506;2023-04-24T04:25:48;13.77;;;4.45;;
34643;SDS011;26931;43.498;-1.506;2023-04-24T04:28:15;13.43;;;4.43;;
34643;SDS011;26931;43.498;-1.506;2023-04-24T04:30:40;16.45;;;4.60;;
34643;SDS011;26931;43.498;-1.506;2023-04-24T04:33:06;11.70;;;4.43;;
34643;SDS011;26931;43.498;-1.506;2023-04-24T04:35:33;12.13;;;3.72;;
34643;SDS011;26931;43.498;-1.506;2023-04-24T04:37:59;12.73;;;3.75;;
34643;SDS011;26931;43.498;-1.506;2023-04-24T04:40:25;13.23;;;4.50;;
34643;SDS011;26931;43.498;-1.506;2023-04-24T04:42:52;12.82;;;4.07;;
34643;SDS011;26931;43.498;-1.506;2023-04-24T04:45:18;14.90;;;4.43;;
34643;SDS011;26931;43.498;-1.506;2023-04-24T04:47:45;14.65;;;4.35;;
34643;SDS011;26931;43.498;-1.506;2023-04-24T04:50:11;13.55;;;3.78;;
34643;SDS011;26931;43.498;-1.506;2023-04-24T04:52:37;14.88;;;3.88;;
34643;SDS011;26931;43.498;-1.506;2023-04-24T04:55:03;16.23;;;4.65;;
34643;SDS011;26931;43.498;-1.506;2023-04-24T04:57:30;11.60;;;4.22;;
34643;SDS011;26931;43.498;-1.506;2023-04-24T04:59:56;15.20;;;4.53;;
34643;SDS011;26931;43.498;-1.506;2023-04-24T05:02:21;14.10;;;4.15;;
34643;SDS011;26931;43.498;-1.506;2023-04-24T05:04:47;12.75;;;4.65;;
34643;SDS011;26931;43.498;-1.506;2023-04-24T05:07:13;11.02;;;4.63;;
34643;SDS011;26931;43.498;-1.506;2023-04-24T05:09:39;9.15;;;3.75;;
34643;SDS011;26931;43.498;-1.506;2023-04-24T05:12:05;13.27;;;4.15;;
34643;SDS011;26931;43.498;-1.506;2023-04-24T05:14:30;12.63;;;4.28;;
34643;SDS011;26931;43.498;-1.506;2023-04-24T05:16:56;13.05;;;4.18;;
34643;SDS011;26931;43.498;-1.506;2023-04-24T05:19:22;13.13;;;4.70;;
34643;SDS011;26931;43.498;-1.506;2023-04-24T05:21:47;12.13;;;4.40;;
34643;SDS011;26931;43.498;-1.506;2023-04-24T05:24:13;15.10;;;4.05;;
34643;SDS011;26931;43.498;-1.506;2023-04-24T05:26:39;11.82;;;4.70;;
34643;SDS011;26931;43.498;-1.506;2023-04-24T05:29:05;10.98;;;3.60;;
34643;SDS011;26931;43.498;-1.506;2023-04-24T05:31:30;9.60;;;3.42;;
34643;SDS011;26931;43.498;-1.506;2023-04-24T05:33:56;11.73;;;3.85;;
34643;SDS011;26931;43.498;-1.506;2023-04-24T05:36:22;11.60;;;3.55;;
34643;SDS011;26931;43.498;-1.506;2023-04-24T05:38:48;8.55;;;3.47;;
34643;SDS011;26931;43.498;-1.506;2023-04-24T05:41:14;12.52;;;3.35;;
34643;SDS011;26931;43.498;-1.506;2023-04-24T05:43:40;10.63;;;3.50;;
34643;SDS011;26931;43.498;-1.506;2023-04-24T05:46:05;9.95;;;3.97;;
34643;SDS011;26931;43.498;-1.506;2023-04-24T05:48:31;10.88;;;3.83;;
34643;SDS011;26931;43.498;-1.506;2023-04-24T05:50:57;13.27;;;4.22;;
34643;SDS011;26931;43.498;-1.506;2023-04-24T05:53:22;11.68;;;4.15;;
34643;SDS011;26931;43.498;-1.506;2023-04-24T05:55:48;15.38;;;4.82;;
34643;SDS011;26931;43.498;-1.506;2023-04-24T05:58:14;12.05;;;4.38;;
34643;SDS011;26931;43.498;-1.506;2023-04-24T06:00:40;9.65;;;4.00;;
34643;SDS011;26931;43.498;-1.506;2023-04-24T06:03:07;11.75;;;4.32;;
34643;SDS011;26931;43.498;-1.506;2023-04-24T06:05:33;10.70;;;3.25;;
34643;SDS011;26931;43.498;-1.506;2023-04-24T06:08:00;10.90;;;4.07;;
34643;SDS011;26931;43.498;-1.506;2023-04-24T06:10:25;15.68;;;4.63;;
34643;SDS011;26931;43.498;-1.506;2023-04-24T06:12:51;11.73;;;4.90;;
34643;SDS011;26931;43.498;-1.506;2023-04-24T06:15:17;15.02;;;4.88;;
34643;SDS011;26931;43.498;-1.506;2023-04-24T06:17:43;10.95;;;4.20;;
34643;SDS011;26931;43.498;-1.506;2023-04-24T06:20:09;12.63;;;4.28;;
34643;SDS011;26931;43.498;-1.506;2023-04-24T06:22:36;20.65;;;4.93;;
34643;SDS011;26931;43.498;-1.506;2023-04-24T06:25:02;14.50;;;4.60;;
34643;SDS011;26931;43.498;-1.506;2023-04-24T06:27:29;17.17;;;5.00;;
34643;SDS011;26931;43.498;-1.506;2023-04-24T06:29:55;15.35;;;4.93;;
34643;SDS011;26931;43.498;-1.506;2023-04-24T06:32:22;14.77;;;4.28;;
34643;SDS011;26931;43.498;-1.506;2023-04-24T06:34:49;19.23;;;5.10;;
34643;SDS011;26931;43.498;-1.506;2023-04-24T06:37:16;15.52;;;5.10;;
34643;SDS011;26931;43.498;-1.506;2023-04-24T06:39:42;19.42;;;5.70;;
34643;SDS011;26931;43.498;-1.506;2023-04-24T06:42:08;19.52;;;5.43;;
34643;SDS011;26931;43.498;-1.506;2023-04-24T06:44:35;16.00;;;5.22;;
34643;SDS011;26931;43.498;-1.506;2023-04-24T06:47:05;17.63;;;5.15;;
34643;SDS011;26931;43.498;-1.506;2023-04-24T06:49:33;15.70;;;4.90;;
34643;SDS011;26931;43.498;-1.506;2023-04-24T06:52:00;15.40;;;4.45;;
34643;SDS011;26931;43.498;-1.506;2023-04-24T06:54:26;14.93;;;4.80;;
34643;SDS011;26931;43.498;-1.506;2023-04-24T06:56:52;15.00;;;4.47;;
34643;SDS011;26931;43.498;-1.506;2023-04-24T06:59:18;10.27;;;3.75;;
34643;SDS011;26931;43.498;-1.506;2023-04-24T07:01:45;11.63;;;4.00;;
34643;SDS011;26931;43.498;-1.506;2023-04-24T07:04:10;12.38;;;3.95;;
34643;SDS011;26931;43.498;-1.506;2023-04-24T07:06:38;13.07;;;3.70;;
34643;SDS011;26931;43.498;-1.506;2023-04-24T07:09:04;11.60;;;4.22;;
34643;SDS011;26931;43.498;-1.506;2023-04-24T07:11:30;6.63;;;3.38;;
34643;SDS011;26931;43.498;-1.506;2023-04-24T07:13:56;9.68;;;3.55;;
34643;SDS011;26931;43.498;-1.506;2023-04-24T07:16:22;9.95;;;3.50;;
34643;SDS011;26931;43.498;-1.506;2023-04-24T07:18:48;9.45;;;3.50;;
34643;SDS011;26931;43.498;-1.506;2023-04-24T07:21:14;7.32;;;2.90;;
34643;SDS011;26931;43.498;-1.506;2023-04-24T07:23:40;10.93;;;2.83;;
34643;SDS011;26931;43.498;-1.506;2023-04-24T07:26:06;10.35;;;3.20;;
34643;SDS011;26931;43.498;-1.506;2023-04-24T07:28:32;7.22;;;3.15;;
34643;SDS011;26931;43.498;-1.506;2023-04-24T07:30:58;8.25;;;2.67;;
34643;SDS011;26931;43.498;-1.506;2023-04-24T07:33:25;10.00;;;2.70;;
34643;SDS011;26931;43.498;-1.506;2023-04-24T07:35:52;8.00;;;2.90;;
34643;SDS011;26931;43.498;-1.506;2023-04-24T07:38:18;5.65;;;2.53;;
34643;SDS011;26931;43.498;-1.506;2023-04-24T07:40:47;6.82;;;2.67;;
34643;SDS011;26931;43.498;-1.506;2023-04-24T07:43:14;7.22;;;2.40;;
34643;SDS011;26931;43.498;-1.506;2023-04-24T07:45:40;9.95;;;3.00;;
34643;SDS011;26931;43.498;-1.506;2023-04-24T07:48:06;9.45;;;3.00;;
34643;SDS011;26931;43.498;-1.506;2023-04-24T07:50:34;8.35;;;2.80;;
34643;SDS011;26931;43.498;-1.506;2023-04-24T07:53:00;11.45;;;3.63;;
34643;SDS011;26931;43.498;-1.506;2023-04-24T07:55:26;8.88;;;2.80;;
34643;SDS011;26931;43.498;-1.506;2023-04-24T07:57:52;8.75;;;3.00;;
34643;SDS011;26931;43.498;-1.506;2023-04-24T08:00:18;13.10;;;3.28;;
34643;SDS011;26931;43.498;-1.506;2023-04-24T08:02:45;10.70;;;3.03;;
34643;SDS011;26931;43.498;-1.506;2023-04-24T08:05:11;8.73;;;3.42;;
34643;SDS011;26931;43.498;-1.506;2023-04-24T08:07:37;11.15;;;2.88;;
34643;SDS011;26931;43.498;-1.506;2023-04-24T08:10:04;8.57;;;2.97;;
34643;SDS011;26931;43.498;-1.506;2023-04-24T08:12:30;8.60;;;2.58;;
34643;SDS011;26931;43.498;-1.506;2023-04-24T08:14:56;11.10;;;2.85;;
34643;SDS011;26931;43.498;-1.506;2023-04-24T08:17:22;10.02;;;2.60;;
34643;SDS011;26931;43.498;-1.506;2023-04-24T08:19:47;6.88;;;2.60;;
34643;SDS011;26931;43.498;-1.506;2023-04-24T08:22:14;8.23;;;2.42;;
34643;SDS011;26931;43.498;-1.506;2023-04-24T08:24:40;8.18;;;2.45;;
34643;SDS011;26931;43.498;-1.506;2023-04-24T08:27:06;7.63;;;2.80;;
34643;SDS011;26931;43.498;-1.506;2023-04-24T08:29:31;6.30;;;2.65;;
34643;SDS011;26931;43.498;-1.506;2023-04-24T08:31:57;6.97;;;2.60;;
34643;SDS011;26931;43.498;-1.506;2023-04-24T08:34:23;6.07;;;2.50;;
34643;SDS011;26931;43.498;-1.506;2023-04-24T08:36:49;9.02;;;3.10;;
34643;SDS011;26931;43.498;-1.506;2023-04-24T08:39:15;14.82;;;3.22;;
34643;SDS011;26931;43.498;-1.506;2023-04-24T08:41:43;8.48;;;2.30;;
34643;SDS011;26931;43.498;-1.506;2023-04-24T08:44:10;8.25;;;2.78;;
34643;SDS011;26931;43.498;-1.506;2023-04-24T08:46:42;9.20;;;3.13;;
34643;SDS011;26931;43.498;-1.506;2023-04-24T08:49:13;7.05;;;2.53;;
34643;SDS011;26931;43.498;-1.506;2023-04-24T08:51:41;5.63;;;2.30;;
34643;SDS011;26931;43.498;-1.506;2023-04-24T08:54:07;6.93;;;2.65;;
34643;SDS011;26931;43.498;-1.506;2023-04-24T08:56:34;9.45;;;2.85;;
34643;SDS011;26931;43.498;-1.506;2023-04-24T08:59:05;4.55;;;2.15;;
34643;SDS011;26931;43.498;-1.506;2023-04-24T09:01:32;7.90;;;2.55;;
34643;SDS011;26931;43.498;-1.506;2023-04-24T09:04:00;7.40;;;2.25;;
34643;SDS011;26931;43.498;-1.506;2023-04-24T09:06:27;5.25;;;2.05;;
34643;SDS011;26931;43.498;-1.506;2023-04-24T09:08:55;6.40;;;2.28;;
34643;SDS011;26931;43.498;-1.506;2023-04-24T09:11:22;5.13;;;2.10;;
34643;SDS011;26931;43.498;-1.506;2023-04-24T09:13:49;5.75;;;2.50;;
34643;SDS011;26931;43.498;-1.506;2023-04-24T09:16:18;4.45;;;2.42;;
34643;SDS011;26931;43.498;-1.506;2023-04-24T09:18:45;5.30;;;2.50;;
34643;SDS011;26931;43.498;-1.506;2023-04-24T09:21:11;7.65;;;2.40;;
34643;SDS011;26931;43.498;-1.506;2023-04-24T09:23:37;6.93;;;2.22;;
34643;SDS011;26931;43.498;-1.506;2023-04-24T09:26:04;8.43;;;2.65;;
34643;SDS011;26931;43.498;-1.506;2023-04-24T09:28:37;5.40;;;2.50;;
34643;SDS011;26931;43.498;-1.506;2023-04-24T09:33:56;9.95;;;2.97;;
34643;SDS011;26931;43.498;-1.506;2023-04-24T09:36:27;6.43;;;2.67;;
34643;SDS011;26931;43.498;-1.506;2023-04-24T09:38:57;5.47;;;2.20;;
34643;SDS011;26931;43.498;-1.506;2023-04-24T09:41:24;7.20;;;2.92;;
34643;SDS011;26931;43.498;-1.506;2023-04-24T09:43:53;5.28;;;2.38;;
34643;SDS011;26931;43.498;-1.506;2023-04-24T09:46:20;7.47;;;2.70;;
34643;SDS011;26931;43.498;-1.506;2023-04-24T09:48:49;7.28;;;2.50;;
34643;SDS011;26931;43.498;-1.506;2023-04-24T09:51:15;6.32;;;2.30;;
34643;SDS011;26931;43.498;-1.506;2023-04-24T09:53:45;9.07;;;2.65;;
34643;SDS011;26931;43.498;-1.506;2023-04-24T09:56:12;6.35;;;3.03;;
34643;SDS011;26931;43.498;-1.506;2023-04-24T09:58:38;7.18;;;2.80;;
34643;SDS011;26931;43.498;-1.506;2023-04-24T10:01:04;9.20;;;2.88;;
34643;SDS011;26931;43.498;-1.506;2023-04-24T10:03:31;7.28;;;2.88;;
34643;SDS011;26931;43.498;-1.506;2023-04-24T10:06:01;6.95;;;2.65;;
34643;SDS011;26931;43.498;-1.506;2023-04-24T10:08:34;9.80;;;2.88;;
34643;SDS011;26931;43.498;-1.506;2023-04-24T10:11:01;5.32;;;2.70;;
34643;SDS011;26931;43.498;-1.506;2023-04-24T10:13:27;10.75;;;3.70;;
34643;SDS011;26931;43.498;-1.506;2023-04-24T10:15:59;10.10;;;3.92;;
34643;SDS011;26931;43.498;-1.506;2023-04-24T10:18:27;7.45;;;3.30;;
34643;SDS011;26931;43.498;-1.506;2023-04-24T10:20:53;7.25;;;3.58;;
34643;SDS011;26931;43.498;-1.506;2023-04-24T10:23:19;6.93;;;3.30;;
34643;SDS011;26931;43.498;-1.506;2023-04-24T10:25:45;11.75;;;4.05;;
34643;SDS011;26931;43.498;-1.506;2023-04-24T10:28:12;12.63;;;3.97;;
34643;SDS011;26931;43.498;-1.506;2023-04-24T10:30:38;10.13;;;3.80;;
34643;SDS011;26931;43.498;-1.506;2023-04-24T10:33:08;7.38;;;3.95;;
34643;SDS011;26931;43.498;-1.506;2023-04-24T10:35:36;6.65;;;3.92;;
34643;SDS011;26931;43.498;-1.506;2023-04-24T10:38:12;10.43;;;3.28;;
34643;SDS011;26931;43.498;-1.506;2023-04-24T10:40:39;8.27;;;2.90;;
34643;SDS011;26931;43.498;-1.506;2023-04-24T10:43:07;8.50;;;3.00;;
34643;SDS011;26931;43.498;-1.506;2023-04-24T10:45:36;8.05;;;2.78;;
34643;SDS011;26931;43.498;-1.506;2023-04-24T10:48:03;8.63;;;2.90;;
34643;SDS011;26931;43.498;-1.506;2023-04-24T10:53:14;9.50;;;3.47;;
34643;SDS011;26931;43.498;-1.506;2023-04-24T10:55:43;5.43;;;3.00;;
34643;SDS011;26931;43.498;-1.506;2023-04-24T10:58:14;7.18;;;2.70;;
34643;SDS011;26931;43.498;-1.506;2023-04-24T11:00:41;8.13;;;2.90;;
34643;SDS011;26931;43.498;-1.506;2023-04-24T11:03:22;8.80;;;2.88;;
34643;SDS011;26931;43.498;-1.506;2023-04-24T11:06:00;4.50;;;2.50;;
34643;SDS011;26931;43.498;-1.506;2023-04-24T11:08:31;6.05;;;2.75;;
34643;SDS011;26931;43.498;-1.506;2023-04-24T11:11:08;6.55;;;3.10;;
34643;SDS011;26931;43.498;-1.506;2023-04-24T11:16:30;9.50;;;3.08;;
34643;SDS011;26931;43.498;-1.506;2023-04-24T11:19:10;6.93;;;2.50;;
34643;SDS011;26931;43.498;-1.506;2023-04-24T11:22:00;7.35;;;2.80;;
34643;SDS011;26931;43.498;-1.506;2023-04-24T11:24:32;7.20;;;3.05;;
34643;SDS011;26931;43.498;-1.506;2023-04-24T11:29:47;5.55;;;2.72;;
34643;SDS011;26931;43.498;-1.506;2023-04-24T11:32:24;6.85;;;3.40;;
34643;SDS011;26931;43.498;-1.506;2023-04-24T11:35:08;7.25;;;3.00;;
34643;SDS011;26931;43.498;-1.506;2023-04-24T11:37:45;7.35;;;3.10;;
34643;SDS011;26931;43.498;-1.506;2023-04-24T11:40:15;9.07;;;3.20;;
34643;SDS011;26931;43.498;-1.506;2023-04-24T11:42:46;9.82;;;3.88;;
34643;SDS011;26931;43.498;-1.506;2023-04-24T11:47:40;8.85;;;3.95;;
34643;SDS011;26931;43.498;-1.506;2023-04-24T11:50:08;9.93;;;3.05;;
34643;SDS011;26931;43.498;-1.506;2023-04-24T11:52:36;10.02;;;3.58;;
34643;SDS011;26931;43.498;-1.506;2023-04-24T11:55:03;6.90;;;3.28;;
34643;SDS011;26931;43.498;-1.506;2023-04-24T11:57:31;10.30;;;3.53;;
34643;SDS011;26931;43.498;-1.506;2023-04-24T12:00:02;6.90;;;2.70;;
34643;SDS011;26931;43.498;-1.506;2023-04-24T12:02:30;7.75;;;3.13;;
34643;SDS011;26931;43.498;-1.506;2023-04-24T12:04:56;5.20;;;2.60;;
34643;SDS011;26931;43.498;-1.506;2023-04-24T12:07:22;11.48;;;2.67;;
34643;SDS011;26931;43.498;-1.506;2023-04-24T12:09:58;9.90;;;2.63;;
34643;SDS011;26931;43.498;-1.506;2023-04-24T12:12:26;8.23;;;2.47;;
34643;SDS011;26931;43.498;-1.506;2023-04-24T12:14:54;7.22;;;2.50;;
34643;SDS011;26931;43.498;-1.506;2023-04-24T12:17:24;4.32;;;2.65;;
34643;SDS011;26931;43.498;-1.506;2023-04-24T12:20:00;7.55;;;2.92;;
34643;SDS011;26931;43.498;-1.506;2023-04-24T12:22:28;7.75;;;2.83;;
34643;SDS011;26931;43.498;-1.506;2023-04-24T12:25:20;6.50;;;2.70;;
34643;SDS011;26931;43.498;-1.506;2023-04-24T12:27:52;9.25;;;2.85;;
34643;SDS011;26931;43.498;-1.506;2023-04-24T12:30:42;11.48;;;2.72;;
34643;SDS011;26931;43.498;-1.506;2023-04-24T12:33:09;10.73;;;2.95;;
34643;SDS011;26931;43.498;-1.506;2023-04-24T12:35:35;5.05;;;2.80;;
34643;SDS011;26931;43.498;-1.506;2023-04-24T12:38:11;9.73;;;3.03;;
34643;SDS011;26931;43.498;-1.506;2023-04-24T12:40:39;10.60;;;3.10;;
34643;SDS011;26931;43.498;-1.506;2023-04-24T12:43:13;9.32;;;2.50;;
34643;SDS011;26931;43.498;-1.506;2023-04-24T12:45:40;5.95;;;2.55;;
34643;SDS011;26931;43.498;-1.506;2023-04-24T12:48:06;6.85;;;2.63;;
34643;SDS011;26931;43.498;-1.506;2023-04-24T12:50:32;5.82;;;2.70;;
34643;SDS011;26931;43.498;-1.506;2023-04-24T12:52:58;6.07;;;2.72;;
34643;SDS011;26931;43.498;-1.506;2023-04-24T12:55:23;7.00;;;2.67;;
34643;SDS011;26931;43.498;-1.506;2023-04-24T12:57:49;9.77;;;2.78;;
34643;SDS011;26931;43.498;-1.506;2023-04-24T13:00:15;8.95;;;2.80;;
34643;SDS011;26931;43.498;-1.506;2023-04-24T13:02:41;7.35;;;2.83;;
34643;SDS011;26931;43.498;-1.506;2023-04-24T13:05:08;9.50;;;2.88;;
34643;SDS011;26931;43.498;-1.506;2023-04-24T13:07:34;7.68;;;2.75;;
34643;SDS011;26931;43.498;-1.506;2023-04-24T13:10:00;10.77;;;2.90;;
34643;SDS011;26931;43.498;-1.506;2023-04-24T13:12:26;8.88;;;3.25;;
34643;SDS011;26931;43.498;-1.506;2023-04-24T13:14:52;6.68;;;2.50;;
34643;SDS011;26931;43.498;-1.506;2023-04-24T13:17:18;9.50;;;3.08;;
34643;SDS011;26931;43.498;-1.506;2023-04-24T13:19:44;6.97;;;3.03;;
34643;SDS011;26931;43.498;-1.506;2023-04-24T13:22:10;9.45;;;2.72;;
34643;SDS011;26931;43.498;-1.506;2023-04-24T13:24:37;9.48;;;3.17;;
34643;SDS011;26931;43.498;-1.506;2023-04-24T13:27:06;9.93;;;3.47;;
34643;SDS011;26931;43.498;-1.506;2023-04-24T13:29:32;9.85;;;3.45;;
34643;SDS011;26931;43.498;-1.506;2023-04-24T13:31:58;8.07;;;2.88;;
34643;SDS011;26931;43.498;-1.506;2023-04-24T13:34:25;7.57;;;2.40;;
34643;SDS011;26931;43.498;-1.506;2023-04-24T13:36:52;6.18;;;2.55;;
34643;SDS011;26931;43.498;-1.506;2023-04-24T13:39:19;10.95;;;3.30;;
34643;SDS011;26931;43.498;-1.506;2023-04-24T13:41:45;7.85;;;2.97;;
34643;SDS011;26931;43.498;-1.506;2023-04-24T13:44:15;6.35;;;2.50;;
34643;SDS011;26931;43.498;-1.506;2023-04-24T13:46:42;7.43;;;2.70;;
34643;SDS011;26931;43.498;-1.506;2023-04-24T13:49:10;5.63;;;2.60;;
34643;SDS011;26931;43.498;-1.506;2023-04-24T13:51:37;8.90;;;2.78;;
34643;SDS011;26931;43.498;-1.506;2023-04-24T13:54:03;7.65;;;2.83;;
34643;SDS011;26931;43.498;-1.506;2023-04-24T13:56:29;7.10;;;2.10;;
34643;SDS011;26931;43.498;-1.506;2023-04-24T13:58:55;6.78;;;2.47;;
34643;SDS011;26931;43.498;-1.506;2023-04-24T14:01:21;3.95;;;2.05;;
34643;SDS011;26931;43.498;-1.506;2023-04-24T14:03:51;4.63;;;2.42;;
34643;SDS011;26931;43.498;-1.506;2023-04-24T14:06:18;8.60;;;2.92;;
34643;SDS011;26931;43.498;-1.506;2023-04-24T14:08:44;6.32;;;2.67;;
34643;SDS011;26931;43.498;-1.506;2023-04-24T14:11:11;6.35;;;2.40;;
34643;SDS011;26931;43.498;-1.506;2023-04-24T14:13:37;7.05;;;2.25;;
34643;SDS011;26931;43.498;-1.506;2023-04-24T14:16:04;7.32;;;2.53;;
34643;SDS011;26931;43.498;-1.506;2023-04-24T14:18:30;4.93;;;2.08;;
34643;SDS011;26931;43.498;-1.506;2023-04-24T14:20:56;4.30;;;1.83;;
34643;SDS011;26931;43.498;-1.506;2023-04-24T14:23:21;5.60;;;2.15;;
34643;SDS011;26931;43.498;-1.506;2023-04-24T14:25:48;6.30;;;2.28;;
34643;SDS011;26931;43.498;-1.506;2023-04-24T14:28:17;6.70;;;2.05;;
34643;SDS011;26931;43.498;-1.506;2023-04-24T14:30:44;5.78;;;2.22;;
34643;SDS011;26931;43.498;-1.506;2023-04-24T14:33:10;7.45;;;2.50;;
34643;SDS011;26931;43.498;-1.506;2023-04-24T14:35:37;3.88;;;2.10;;
34643;SDS011;26931;43.498;-1.506;2023-04-24T14:38:03;7.32;;;2.45;;
34643;SDS011;26931;43.498;-1.506;2023-04-24T14:40:28;5.88;;;2.30;;